Time;durP1;ratioP1;P1;durP2;ratioP2;P2;SDS_P1;SDS_P2;PMS_P1;PMS_P2;Temp;Humidity;BMP_temperature;BMP_pressure;BME280_temperature;BME280_humidity;BME280_pressure;Samples;Min_cycle;Max_cycle;Signal;HPM_P1;HPM_P2
2022/04/20 00:01:56;;;;;;;14.38;7.97;;;3.00;99.90;;;;;;4996592;28;20032;-71
2022/04/20 00:04:21;;;;;;;15.60;7.75;;;3.00;99.90;;;;;;4997787;28;20085;-71
2022/04/20 00:06:47;;;;;;;17.27;9.02;;;3.00;99.90;;;;;;4997197;28;20105;-71
2022/04/20 00:09:12;;;;;;;14.68;7.97;;;3.00;99.90;;;;;;4997238;28;20080;-71
2022/04/20 00:11:38;;;;;;;17.83;9.98;;;3.00;99.90;;;;;;4996426;28;20027;-71
2022/04/20 00:14:03;;;;;;;20.20;8.57;;;3.10;99.90;;;;;;4997177;28;20045;-71
2022/04/20 00:16:29;;;;;;;18.65;7.72;;;3.10;99.90;;;;;;4996882;28;20138;-71
2022/04/20 00:18:54;;;;;;;17.05;9.80;;;3.10;99.90;;;;;;4996823;28;20064;-71
2022/04/20 00:21:20;;;;;;;21.23;9.65;;;3.20;99.90;;;;;;4996787;28;20410;-71
2022/04/20 00:23:45;;;;;;;24.52;9.73;;;3.20;99.90;;;;;;4996186;28;20058;-71
2022/04/20 00:26:11;;;;;;;22.13;9.77;;;3.30;99.90;;;;;;4996900;28;20037;-71
2022/04/20 00:28:37;;;;;;;18.02;9.68;;;3.40;99.90;;;;;;4996533;28;20092;-71
2022/04/20 00:31:02;;;;;;;17.63;9.57;;;3.40;99.90;;;;;;4994894;28;20109;-71
2022/04/20 00:33:28;;;;;;;19.45;9.93;;;3.40;99.90;;;;;;4996788;28;20026;-71
2022/04/20 00:35:53;;;;;;;17.42;9.88;;;3.40;99.90;;;;;;4996078;28;20038;-71
2022/04/20 00:38:19;;;;;;;20.77;9.27;;;3.40;99.90;;;;;;4996462;28;20026;-71
2022/04/20 00:40:48;;;;;;;19.50;9.48;;;3.40;99.90;;;;;;4996000;28;20026;-69
2022/04/20 00:43:14;;;;;;;17.65;8.82;;;3.30;99.90;;;;;;5011345;28;20498;-71
2022/04/20 00:45:42;;;;;;;17.85;9.52;;;3.30;99.90;;;;;;4996936;28;20030;-71
2022/04/20 00:48:10;;;;;;;14.85;8.63;;;3.30;99.90;;;;;;4996566;28;20022;-71
2022/04/20 00:50:35;;;;;;;18.40;8.95;;;3.30;99.90;;;;;;4996306;28;20030;-71
2022/04/20 00:53:01;;;;;;;18.33;8.98;;;3.30;99.90;;;;;;4996195;28;20033;-71
2022/04/20 00:55:27;;;;;;;15.95;9.32;;;3.30;99.90;;;;;;4995500;28;20034;-71
2022/04/20 00:57:52;;;;;;;21.38;9.80;;;3.20;99.90;;;;;;4996047;28;20080;-71
2022/04/20 01:00:18;;;;;;;21.95;9.50;;;3.20;99.90;;;;;;4996137;28;20467;-71
2022/04/20 01:02:44;;;;;;;19.77;9.05;;;3.20;99.90;;;;;;4995407;28;20034;-71
2022/04/20 01:05:09;;;;;;;17.98;10.13;;;3.20;99.90;;;;;;4996005;28;20033;-71
2022/04/20 01:07:37;;;;;;;20.30;9.95;;;3.10;99.90;;;;;;4995787;28;20037;-71
2022/04/20 01:10:03;;;;;;;20.95;9.60;;;3.10;99.90;;;;;;4995384;28;20033;-71
2022/04/20 01:12:30;;;;;;;13.00;8.00;;;3.00;99.90;;;;;;4996016;28;20446;-71
2022/04/20 01:14:55;;;;;;;14.43;7.80;;;2.90;99.90;;;;;;4996100;28;20050;-72
2022/04/20 01:17:21;;;;;;;16.17;8.90;;;2.90;99.90;;;;;;4997515;28;20463;-72
2022/04/20 01:19:47;;;;;;;14.80;8.60;;;2.80;99.90;;;;;;4995757;28;20037;-71
2022/04/20 01:22:12;;;;;;;20.23;9.23;;;2.70;99.90;;;;;;4995586;28;20434;-71
2022/04/20 01:24:39;;;;;;;13.70;8.32;;;2.70;99.90;;;;;;4995826;28;20034;-71
2022/04/20 01:27:06;;;;;;;14.98;8.82;;;2.60;99.90;;;;;;4995526;28;20050;-71
2022/04/20 01:29:32;;;;;;;15.55;8.60;;;2.60;99.90;;;;;;4995011;28;20398;-71
2022/04/20 01:31:58;;;;;;;16.65;8.38;;;2.60;99.90;;;;;;4994237;28;20030;-71
2022/04/20 01:34:23;;;;;;;14.07;8.63;;;2.50;99.90;;;;;;4995421;28;20030;-71
2022/04/20 01:36:50;;;;;;;19.50;8.18;;;2.50;99.90;;;;;;4995200;28;20438;-71
2022/04/20 01:39:16;;;;;;;16.38;9.10;;;2.50;99.90;;;;;;4994890;28;20382;-71
2022/04/20 01:41:42;;;;;;;14.10;7.80;;;2.50;99.90;;;;;;4995756;28;20019;-72
2022/04/20 01:44:08;;;;;;;18.42;8.80;;;2.40;99.90;;;;;;4995246;28;20033;-71
2022/04/20 01:46:34;;;;;;;17.50;9.02;;;2.40;99.90;;;;;;5009629;28;20034;-71
2022/04/20 01:49:01;;;;;;;18.00;9.30;;;2.40;99.90;;;;;;4995079;28;20390;-71
2022/04/20 01:54:11;;;;;;;;;;;2.40;99.90;;;;;;4996980;28;20076;-71
2022/04/20 01:56:36;;;;;;;22.95;10.95;;;2.30;99.90;;;;;;4994748;28;20004;-71
2022/04/20 01:59:02;;;;;;;18.48;8.38;;;2.20;99.90;;;;;;4995242;28;20026;-71
2022/04/20 02:04:12;;;;;;;;;;;2.20;99.90;;;;;;4995520;28;20057;-71
2022/04/20 02:06:38;;;;;;;13.80;8.10;;;2.20;99.90;;;;;;4994263;28;20366;-71
2022/04/20 02:09:04;;;;;;;14.23;8.55;;;2.10;99.90;;;;;;4994899;28;20036;-71
2022/04/20 02:11:29;;;;;;;19.00;8.88;;;2.10;99.90;;;;;;4994750;28;20027;-71
2022/04/20 02:13:55;;;;;;;15.18;8.40;;;2.10;99.90;;;;;;4994673;28;20032;-71
2022/04/20 02:16:21;;;;;;;14.80;7.95;;;2.10;99.90;;;;;;4995286;28;20050;-72
2022/04/20 02:18:47;;;;;;;18.92;10.55;;;2.00;99.90;;;;;;4994310;28;20057;-72
2022/04/20 02:21:12;;;;;;;16.42;8.80;;;2.00;99.90;;;;;;4994777;28;20491;-71
2022/04/20 02:23:38;;;;;;;17.40;9.63;;;2.00;99.90;;;;;;4994797;28;20098;-72
2022/04/20 02:26:03;;;;;;;18.35;8.98;;;2.00;99.90;;;;;;4994163;28;20482;-71
2022/04/20 02:28:29;;;;;;;18.42;9.82;;;1.90;99.90;;;;;;4994518;28;20498;-71
2022/04/20 02:30:54;;;;;;;18.67;9.10;;;1.90;99.90;;;;;;4994684;28;20524;-71
2022/04/20 02:33:20;;;;;;;15.50;9.60;;;1.90;99.90;;;;;;4994858;28;20053;-72
2022/04/20 02:35:46;;;;;;;19.02;10.32;;;1.90;99.90;;;;;;4994149;28;20022;-71
2022/04/20 02:38:14;;;;;;;17.88;9.95;;;1.90;99.90;;;;;;4994383;28;20463;-71
2022/04/20 02:40:40;;;;;;;17.95;10.23;;;1.80;99.90;;;;;;4994474;28;20026;-71
2022/04/20 02:43:06;;;;;;;16.77;9.13;;;1.80;99.90;;;;;;4993912;28;20363;-71
2022/04/20 02:45:31;;;;;;;15.10;9.60;;;1.80;99.90;;;;;;4994511;28;20034;-71
2022/04/20 02:47:57;;;;;;;17.90;9.82;;;1.80;99.90;;;;;;4994373;28;20109;-71
2022/04/20 02:50:22;;;;;;;16.73;9.55;;;1.80;99.90;;;;;;4994407;28;20030;-71
2022/04/20 02:52:48;;;;;;;12.73;9.00;;;1.80;99.90;;;;;;4993946;28;20545;-71
2022/04/20 02:55:14;;;;;;;18.90;9.20;;;1.80;99.90;;;;;;4994284;28;20022;-71
2022/04/20 02:57:39;;;;;;;24.08;10.75;;;1.70;99.90;;;;;;4994368;28;20038;-71
2022/04/20 03:00:06;;;;;;;17.58;9.25;;;1.70;99.90;;;;;;4998200;28;20389;-72
2022/04/20 03:02:31;;;;;;;20.38;10.60;;;1.70;99.90;;;;;;4997696;28;20027;-71
2022/04/20 03:04:57;;;;;;;14.20;8.85;;;1.70;99.90;;;;;;4998622;28;20368;-71
2022/04/20 03:07:23;;;;;;;22.60;9.05;;;1.70;99.90;;;;;;4998266;28;20030;-71
2022/04/20 03:09:49;;;;;;;18.30;10.10;;;1.70;99.90;;;;;;4998116;28;20029;-71
2022/04/20 03:12:14;;;;;;;16.27;8.90;;;1.60;99.90;;;;;;4998716;28;20034;-71
2022/04/20 03:14:40;;;;;;;17.58;9.57;;;1.70;99.90;;;;;;4990936;28;20027;-71
2022/04/20 03:17:06;;;;;;;20.40;10.40;;;1.70;99.90;;;;;;4978395;28;20049;-71
2022/04/20 03:19:31;;;;;;;18.88;11.27;;;1.70;99.90;;;;;;4980298;28;20059;-71
2022/04/20 03:21:57;;;;;;;20.63;10.88;;;1.70;99.90;;;;;;4998204;28;20030;-71
2022/04/20 03:24:23;;;;;;;18.10;10.05;;;1.70;99.90;;;;;;4998116;28;20018;-71
2022/04/20 03:26:48;;;;;;;23.05;12.40;;;1.70;99.90;;;;;;4997617;28;20034;-71
2022/04/20 03:29:14;;;;;;;24.20;13.45;;;1.70;99.90;;;;;;4995119;28;20505;-71
2022/04/20 03:31:39;;;;;;;29.85;16.98;;;1.70;99.90;;;;;;4978243;28;20039;-71
2022/04/20 03:34:05;;;;;;;39.53;21.20;;;1.60;99.90;;;;;;4978222;28;20109;-71
2022/04/20 03:36:31;;;;;;;36.42;19.45;;;1.70;99.90;;;;;;4978063;28;20139;-71
2022/04/20 03:38:56;;;;;;;25.08;13.07;;;1.70;99.90;;;;;;4978320;28;20095;-71
2022/04/20 03:41:22;;;;;;;22.48;11.18;;;1.70;99.90;;;;;;4977637;28;20497;-71
2022/04/20 03:43:48;;;;;;;22.95;10.60;;;1.60;99.90;;;;;;4977956;28;20027;-71
2022/04/20 03:46:14;;;;;;;22.35;12.15;;;1.60;99.90;;;;;;4978403;28;20031;-71
2022/04/20 03:48:40;;;;;;;19.13;11.38;;;1.60;99.90;;;;;;4977921;28;20066;-71
2022/04/20 03:51:06;;;;;;;20.15;12.32;;;1.60;99.90;;;;;;4977930;28;20091;-71
2022/04/20 03:53:31;;;;;;;26.15;16.20;;;1.50;99.90;;;;;;4977498;28;20039;-71
2022/04/20 03:55:57;;;;;;;34.95;21.23;;;1.50;99.90;;;;;;4977839;28;20126;-71
2022/04/20 03:58:22;;;;;;;39.08;24.02;;;1.50;99.90;;;;;;4977763;28;20452;-72
2022/04/20 04:00:48;;;;;;;37.40;20.02;;;1.40;99.90;;;;;;4977976;28;20058;-72
2022/04/20 04:03:14;;;;;;;29.10;17.55;;;1.40;99.90;;;;;;4977265;28;20019;-71
2022/04/20 04:05:40;;;;;;;34.65;19.60;;;1.40;99.90;;;;;;4977548;28;20387;-71
2022/04/20 04:08:06;;;;;;;38.13;20.48;;;1.40;99.90;;;;;;4977573;28;20030;-71
2022/04/20 04:10:32;;;;;;;32.45;14.13;;;1.40;99.90;;;;;;4977021;28;20027;-71
2022/04/20 04:12:57;;;;;;;18.63;11.63;;;1.40;99.90;;;;;;4977116;28;20479;-71
2022/04/20 04:15:23;;;;;;;22.48;11.55;;;1.40;99.90;;;;;;4977545;28;20386;-71
2022/04/20 04:17:54;;;;;;;26.77;12.30;;;1.40;99.90;;;;;;4977414;28;20035;-71
2022/04/20 04:20:21;;;;;;;21.40;11.85;;;1.50;99.90;;;;;;4977411;28;20018;-71
2022/04/20 04:22:47;;;;;;;17.65;11.38;;;1.40;99.90;;;;;;4977584;28;20043;-71
2022/04/20 04:25:13;;;;;;;22.88;12.32;;;1.40;99.90;;;;;;4976859;28;20029;-71
2022/04/20 04:27:38;;;;;;;21.50;12.13;;;1.40;99.90;;;;;;4976999;28;20046;-72
2022/04/20 04:30:05;;;;;;;22.05;12.13;;;1.40;99.90;;;;;;4977112;28;20042;-72
2022/04/20 04:32:31;;;;;;;31.25;11.85;;;1.40;99.90;;;;;;4977119;28;20023;-71
2022/04/20 04:34:56;;;;;;;27.40;13.27;;;1.40;99.90;;;;;;4977449;28;20387;-71
2022/04/20 04:37:22;;;;;;;23.67;12.20;;;1.50;99.90;;;;;;4976842;28;20027;-71
2022/04/20 04:39:48;;;;;;;21.40;11.85;;;1.50;99.90;;;;;;4976737;28;20015;-71
2022/04/20 04:42:13;;;;;;;25.77;13.95;;;1.50;99.90;;;;;;4977050;28;20029;-71
2022/04/20 04:44:39;;;;;;;21.33;11.98;;;1.60;99.90;;;;;;4977100;28;20105;-71
2022/04/20 04:49:49;;;;;;;21.50;12.45;;;1.70;99.90;;;;;;4976491;28;20113;-71
2022/04/20 04:52:14;;;;;;;28.50;14.30;;;1.70;99.90;;;;;;4976637;28;20026;-71
2022/04/20 04:54:40;;;;;;;26.63;13.55;;;1.80;99.90;;;;;;4976983;28;20027;-71
2022/04/20 04:57:09;;;;;;;38.85;16.17;;;1.90;99.90;;;;;;4976865;28;20054;-72
2022/04/20 04:59:36;;;;;;;87.05;26.73;;;2.00;99.90;;;;;;4976577;28;20025;-72
2022/04/20 05:02:02;;;;;;;98.55;30.70;;;2.10;99.90;;;;;;4976783;28;20023;-71
2022/04/20 05:04:29;;;;;;;73.65;27.40;;;2.20;99.90;;;;;;4991057;28;20037;-71
2022/04/20 05:06:56;;;;;;;57.78;22.55;;;2.30;99.90;;;;;;4976548;28;20109;-71
2022/04/20 05:09:21;;;;;;;29.95;16.05;;;2.40;99.90;;;;;;4976428;28;20054;-71
2022/04/20 05:11:48;;;;;;;34.22;15.32;;;2.60;99.90;;;;;;4976910;28;20425;-72
2022/04/20 05:14:17;;;;;;;25.27;13.02;;;2.70;99.90;;;;;;4976808;28;20035;-71
2022/04/20 05:16:43;;;;;;;24.90;13.85;;;2.90;99.90;;;;;;4975923;28;20537;-72
2022/04/20 05:19:10;;;;;;;27.38;13.75;;;3.00;99.90;;;;;;4976512;28;20027;-71
2022/04/20 05:21:35;;;;;;;25.10;13.40;;;3.10;99.90;;;;;;4975228;28;20494;-71
2022/04/20 05:24:01;;;;;;;22.52;12.60;;;3.30;99.90;;;;;;4976224;28;20031;-71
2022/04/20 05:26:27;;;;;;;20.23;12.63;;;3.40;99.90;;;;;;4976227;28;20022;-71
2022/04/20 05:28:52;;;;;;;22.90;12.85;;;3.50;99.90;;;;;;5012652;23;20490;-68
2022/04/20 05:31:19;;;;;;;18.38;12.18;;;3.70;99.90;;;;;;4995126;28;20386;-68
2022/04/20 05:33:44;;;;;;;25.00;12.63;;;3.90;99.90;;;;;;4995347;28;20072;-68
2022/04/20 05:36:11;;;;;;;22.00;12.05;;;4.00;99.90;;;;;;4994919;28;20034;-68
2022/04/20 05:41:42;;;;;;;24.02;12.05;;;4.30;99.90;;;;;;4980827;28;20437;-68
2022/04/20 05:44:12;;;;;;;23.75;12.85;;;4.50;99.90;;;;;;5014758;28;20026;-68
2022/04/20 05:46:39;;;;;;;20.13;11.90;;;4.70;99.90;;;;;;5014672;28;20022;-68
2022/04/20 05:49:05;;;;;;;22.15;12.00;;;4.90;99.90;;;;;;5014244;28;20032;-68
2022/04/20 05:51:31;;;;;;;19.17;11.25;;;5.10;99.90;;;;;;5014758;28;20108;-68
2022/04/20 05:53:56;;;;;;;18.00;11.45;;;5.30;99.90;;;;;;5013871;28;20032;-68
2022/04/20 05:56:22;;;;;;;20.45;12.90;;;5.40;99.90;;;;;;5014181;28;20496;-69
2022/04/20 05:58:50;;;;;;;20.70;12.30;;;5.60;99.90;;;;;;5014296;28;20109;-68
2022/04/20 06:01:16;;;;;;;19.17;11.30;;;5.80;99.90;;;;;;5014148;28;20072;-68
2022/04/20 06:03:42;;;;;;;21.63;10.68;;;6.00;99.90;;;;;;5014320;28;20030;-67
2022/04/20 06:06:08;;;;;;;19.85;10.63;;;6.20;99.90;;;;;;5014025;28;20040;-67
2022/04/20 06:08:33;;;;;;;17.83;10.35;;;6.40;99.90;;;;;;5013675;28;20537;-67
2022/04/20 06:10:59;;;;;;;14.43;9.73;;;6.60;99.90;;;;;;5014171;28;20474;-67
2022/04/20 06:13:25;;;;;;;26.52;11.00;;;6.80;99.90;;;;;;5014225;28;20063;-68
2022/04/20 06:15:54;;;;;;;16.13;10.45;;;6.90;99.90;;;;;;5013837;28;20064;-68
2022/04/20 06:18:20;;;;;;;15.88;9.52;;;7.10;99.90;;;;;;5014067;28;20045;-67
2022/04/20 06:20:45;;;;;;;16.17;9.15;;;7.30;99.90;;;;;;5013869;28;20026;-67
2022/04/20 06:23:11;;;;;;;13.93;8.93;;;7.40;99.90;;;;;;5013187;28;20038;-67
2022/04/20 06:25:36;;;;;;;9.77;6.93;;;7.60;99.90;;;;;;5013776;28;20029;-67
2022/04/20 06:28:02;;;;;;;14.20;7.00;;;7.80;99.90;;;;;;5013052;28;20038;-67
2022/04/20 06:30:28;;;;;;;12.55;6.10;;;8.00;99.90;;;;;;5013224;28;20382;-67
2022/04/20 06:32:54;;;;;;;12.18;6.47;;;8.20;99.90;;;;;;5013486;28;20073;-67
2022/04/20 06:35:20;;;;;;;13.60;6.35;;;8.30;99.90;;;;;;5013540;28;20418;-67
2022/04/20 06:37:45;;;;;;;13.10;6.72;;;8.60;99.90;;;;;;5013521;28;20029;-68
2022/04/20 06:40:11;;;;;;;8.98;5.85;;;8.70;99.90;;;;;;5013742;28;20030;-67
2022/04/20 06:42:37;;;;;;;9.40;5.25;;;8.90;99.90;;;;;;5013298;28;20017;-67
2022/04/20 06:45:03;;;;;;;13.18;5.93;;;9.10;99.90;;;;;;5013906;28;20028;-67
2022/04/20 06:47:29;;;;;;;15.02;6.00;;;9.30;99.90;;;;;;5013494;28;20036;-67
2022/04/20 06:49:55;;;;;;;11.77;5.38;;;9.40;99.90;;;;;;5013511;28;20057;-67
2022/04/20 07:00:33;;;;;;;11.52;5.50;;;10.20;99.90;;;;;;5013703;28;20156;-67
2022/04/20 07:03:00;;;;;;;12.73;4.47;;;10.40;99.90;;;;;;5013404;28;20046;-68
2022/04/20 07:05:26;;;;;;;9.30;4.13;;;10.50;99.90;;;;;;5013640;28;20413;-68
2022/04/20 07:07:51;;;;;;;7.60;3.80;;;10.70;99.90;;;;;;5013444;28;20076;-68
2022/04/20 07:10:17;;;;;;;19.33;4.10;;;10.80;99.90;;;;;;5013058;28;20014;-68
2022/04/20 07:12:42;;;;;;;7.97;2.30;;;11.00;99.90;;;;;;5013327;28;20072;-68
2022/04/20 07:15:08;;;;;;;3.50;2.67;;;11.20;99.90;;;;;;5013482;28;20100;-68
2022/04/20 07:17:34;;;;;;;12.63;2.35;;;11.40;99.90;;;;;;5013223;28;20049;-68
2022/04/20 07:20:01;;;;;;;7.10;2.63;;;11.60;99.90;;;;;;5013053;28;20531;-68
2022/04/20 07:22:27;;;;;;;4.45;2.70;;;11.80;99.90;;;;;;5013539;28;20026;-68
2022/04/20 07:24:52;;;;;;;6.38;2.40;;;11.90;99.90;;;;;;5013270;28;20029;-67
2022/04/20 07:27:18;;;;;;;3.88;2.20;;;12.10;99.90;;;;;;5013118;28;20038;-67
2022/04/20 07:29:43;;;;;;;7.95;2.58;;;12.40;99.90;;;;;;5013579;28;20030;-67
2022/04/20 07:32:09;;;;;;;9.73;2.33;;;12.60;99.90;;;;;;5012811;28;20032;-67
2022/04/20 07:34:35;;;;;;;6.47;2.95;;;12.70;99.90;;;;;;5013173;28;20022;-67
2022/04/20 07:37:00;;;;;;;5.10;2.63;;;12.90;99.90;;;;;;5013100;28;20048;-67
2022/04/20 07:39:26;;;;;;;4.93;2.67;;;13.00;99.90;;;;;;5013058;28;20491;-67
2022/04/20 07:41:51;;;;;;;6.10;2.67;;;13.00;99.90;;;;;;5012841;28;20045;-67
2022/04/20 07:44:17;;;;;;;4.45;2.65;;;13.00;99.90;;;;;;5012994;28;20368;-67
2022/04/20 07:46:42;;;;;;;4.32;2.58;;;13.10;99.90;;;;;;5016202;28;20488;-67
2022/04/20 07:51:52;;;;;;;;;;;13.40;99.90;;;;;;5016886;28;20437;-67
2022/04/20 07:54:18;;;;;;;8.02;3.80;;;13.70;99.90;;;;;;5016254;28;19913;-67
2022/04/20 07:56:44;;;;;;;4.03;2.65;;;13.80;99.90;;;;;;5016293;28;20022;-68
2022/04/20 07:59:09;;;;;;;8.15;2.55;;;14.00;99.90;;;;;;5016212;28;20114;-68
2022/04/20 08:01:35;;;;;;;3.78;2.42;;;14.20;99.90;;;;;;5016297;28;20382;-68
2022/04/20 08:04:00;;;;;;;7.88;2.65;;;14.30;99.90;;;;;;5016488;28;20032;-68
2022/04/20 08:06:27;;;;;;;5.40;2.50;;;14.20;99.90;;;;;;5015676;28;20049;-67
2022/04/20 08:08:52;;;;;;;9.02;2.53;;;14.40;99.90;;;;;;5016936;28;20037;-67
2022/04/20 08:11:18;;;;;;;3.83;2.28;;;14.60;99.90;;;;;;5016141;28;20026;-67
2022/04/20 08:16:29;;;;;;;7.47;2.53;;;14.60;99.90;;;;;;5016261;28;20556;-68
2022/04/20 08:18:54;;;;;;;3.10;2.35;;;14.80;99.90;;;;;;5015388;28;20363;-68
2022/04/20 08:21:20;;;;;;;5.65;3.17;;;15.20;99.90;;;;;;5015984;28;20034;-68
2022/04/20 08:23:46;;;;;;;6.47;2.65;;;15.40;99.90;;;;;;5016140;28;20038;-68
2022/04/20 08:26:13;;;;;;;4.35;2.60;;;15.60;99.90;;;;;;5015828;28;20026;-68
2022/04/20 08:28:39;;;;;;;7.70;2.72;;;15.80;99.90;;;;;;5015786;28;20030;-67
2022/04/20 08:31:04;;;;;;;4.53;2.50;;;16.00;99.90;;;;;;5015601;28;20080;-68
2022/04/20 08:33:30;;;;;;;7.40;2.47;;;16.20;99.90;;;;;;5014075;28;20153;-67
2022/04/20 08:35:56;;;;;;;9.57;2.88;;;16.00;99.90;;;;;;5015522;28;20036;-67
2022/04/20 08:38:22;;;;;;;5.88;2.85;;;15.80;99.90;;;;;;5015759;28;20025;-67
2022/04/20 08:40:49;;;;;;;5.47;2.60;;;15.90;99.90;;;;;;5015153;28;20486;-67
2022/04/20 08:43:15;;;;;;;2.92;2.00;;;16.00;99.90;;;;;;5015425;28;20454;-67
2022/04/20 08:45:41;;;;;;;6.88;2.58;;;15.90;99.90;;;;;;5015487;28;20072;-67
2022/04/20 08:48:07;;;;;;;6.18;2.53;;;15.80;99.90;;;;;;5015575;28;20073;-67
2022/04/20 08:50:33;;;;;;;4.95;2.72;;;15.80;99.90;;;;;;5014838;28;20061;-66
2022/04/20 08:52:58;;;;;;;12.07;2.70;;;15.80;99.90;;;;;;5015267;28;20026;-67
2022/04/20 08:55:25;;;;;;;5.10;2.22;;;15.90;99.90;;;;;;5015609;28;20030;-67
2022/04/20 08:57:52;;;;;;;8.07;3.13;;;16.20;99.90;;;;;;5014985;28;20474;-67
2022/04/20 09:00:26;;;;;;;6.80;2.78;;;16.30;99.90;;;;;;5015489;28;20022;-67
2022/04/20 09:02:58;;;;;;;10.73;4.07;;;16.50;99.90;;;;;;5015026;28;20022;-67
2022/04/20 09:05:25;;;;;;;8.07;3.33;;;16.60;99.90;;;;;;5014951;28;20057;-67
2022/04/20 09:07:50;;;;;;;4.45;3.13;;;16.60;99.90;;;;;;5015290;28;20117;-67
2022/04/20 09:10:16;;;;;;;5.88;3.33;;;16.60;99.90;;;;;;5015283;28;20053;-67
2022/04/20 09:12:43;;;;;;;10.02;4.78;;;16.10;99.90;;;;;;5014986;28;20026;-67
2022/04/20 09:15:16;;;;;;;5.30;3.60;;;16.40;99.90;;;;;;5014506;28;20025;-68
2022/04/20 09:17:47;;;;;;;8.85;3.00;;;16.60;99.90;;;;;;5014843;28;20029;-67
2022/04/20 09:20:17;;;;;;;10.20;3.35;;;16.70;99.90;;;;;;5015012;28;20109;-67
2022/04/20 09:23:07;;;;;;;8.80;3.90;;;16.80;99.90;;;;;;5015296;28;20476;-67
2022/04/20 09:25:34;;;;;;;6.70;3.58;;;17.10;99.90;;;;;;5014429;28;20037;-67
2022/04/20 09:28:01;;;;;;;10.40;3.40;;;17.10;99.90;;;;;;5014663;28;20057;-67
2022/04/20 09:30:38;;;;;;;18.83;4.57;;;16.90;99.50;;;;;;5014604;28;20033;-67
2022/04/20 09:33:07;;;;;;;10.20;4.65;;;16.50;99.90;;;;;;5015212;28;20049;-67
2022/04/20 09:35:44;;;;;;;12.98;4.05;;;16.90;99.90;;;;;;5014987;28;20030;-67
2022/04/20 09:38:10;;;;;;;7.85;4.28;;;17.20;99.90;;;;;;5014045;28;20115;-67
2022/04/20 09:40:38;;;;;;;7.57;3.88;;;17.20;99.90;;;;;;5014419;28;20470;-67
2022/04/20 09:43:08;;;;;;;12.73;3.88;;;17.20;99.90;;;;;;5014663;28;20029;-67
2022/04/20 09:45:35;;;;;;;6.75;3.95;;;17.40;99.90;;;;;;5014724;28;20018;-67
2022/04/20 09:51:12;;;;;;;8.85;4.07;;;17.60;99.90;;;;;;5014943;28;20497;-67
2022/04/20 09:53:38;;;;;;;;;;;18.20;99.90;;;;;;5014921;28;20037;-67
2022/04/20 09:56:20;;;;;;;8.68;4.68;;;18.60;99.90;;;;;;5014396;28;20003;-67
2022/04/20 09:58:46;;;;;;;6.82;4.07;;;19.10;99.90;;;;;;5014335;28;20018;-67
2022/04/20 10:01:34;;;;;;;7.13;3.95;;;19.30;99.90;;;;;;5013691;28;20543;-67
2022/04/20 10:04:01;;;;;;;12.43;4.63;;;19.10;98.60;;;;;;5014065;28;20033;-67
2022/04/20 10:06:27;;;;;;;10.15;4.05;;;19.20;99.80;;;;;;5014293;28;20026;-67
2022/04/20 10:08:53;;;;;;;14.23;4.53;;;19.40;96.30;;;;;;5013507;28;20029;-67
2022/04/20 10:11:22;;;;;;;8.05;3.88;;;19.30;95.40;;;;;;5013593;28;20032;-67
2022/04/20 10:16:05;;;;;;;8.07;4.55;;;19.30;98.00;;;;;;5014200;28;20018;-67
2022/04/20 10:16:37;;;;;;;7.68;4.05;;;18.90;95.70;;;;;;5013706;28;20541;-67
2022/04/20 10:19:03;;;;;;;6.55;4.43;;;18.70;99.90;;;;;;5014800;28;20038;-67
2022/04/20 10:21:31;;;;;;;6.13;3.65;;;18.70;97.30;;;;;;5012543;28;20493;-67
2022/04/20 10:24:05;;;;;;;5.90;3.92;;;18.90;98.00;;;;;;5013809;28;20068;-67
2022/04/20 10:26:33;;;;;;;7.97;3.85;;;19.10;96.10;;;;;;5013362;28;20112;-67
2022/04/20 10:29:08;;;;;;;11.35;4.63;;;19.00;99.80;;;;;;5013675;28;20115;-67
2022/04/20 10:31:53;;;;;;;12.18;5.10;;;19.10;95.70;;;;;;5013899;28;20025;-67
2022/04/20 10:34:19;;;;;;;8.93;4.90;;;19.00;95.40;;;;;;5013267;28;20475;-67
2022/04/20 10:36:59;;;;;;;18.70;5.07;;;18.60;96.60;;;;;;5013507;28;20034;-67
2022/04/20 10:39:27;;;;;;;9.13;5.13;;;18.30;93.90;;;;;;5013551;28;20482;-67
2022/04/20 10:42:11;;;;;;;9.63;5.35;;;18.20;93.90;;;;;;5013582;28;20543;-67
2022/04/20 10:44:55;;;;;;;;;;;18.60;96.10;;;;;;5013451;28;20479;-67
2022/04/20 10:47:24;;;;;;;12.68;5.35;;;18.70;94.50;;;;;;5013887;28;19992;-67
2022/04/20 10:50:08;;;;;;;10.90;5.05;;;18.40;94.30;;;;;;5013440;28;20489;-67
2022/04/20 10:52:41;;;;;;;10.13;5.55;;;18.50;95.00;;;;;;5013752;28;20069;-67
2022/04/20 10:55:11;;;;;;;12.73;5.63;;;18.30;93.70;;;;;;5013691;28;20123;-68
2022/04/20 10:57:41;;;;;;;10.00;5.28;;;18.10;94.50;;;;;;5013659;28;20030;-67
2022/04/20 11:00:19;;;;;;;11.60;6.10;;;18.10;95.20;;;;;;5013168;28;20033;-67
2022/04/20 11:02:55;;;;;;;13.80;5.03;;;18.40;96.70;;;;;;5013674;28;20041;-67
2022/04/20 11:05:23;;;;;;;15.68;5.75;;;19.00;98.60;;;;;;5013723;28;20026;-67
2022/04/20 11:08:12;;;;;;;16.80;5.55;;;19.40;96.20;;;;;;5013581;28;20103;-67
2022/04/20 11:18:38;;;;;;;9.40;5.72;;;19.30;95.40;;;;;;5013108;28;20048;-67
2022/04/20 11:19:15;;;;;;;11.90;5.05;;;19.20;98.60;;;;;;5013649;28;19911;-68
2022/04/20 11:22:13;;;;;;;11.75;6.18;;;19.80;93.60;;;;;;5017097;28;20034;-68
2022/04/20 11:24:38;;;;;;;10.25;5.70;;;19.40;95.70;;;;;;4994269;28;20125;-67
2022/04/20 11:27:04;;;;;;;10.18;5.40;;;19.30;92.30;;;;;;5017100;28;20458;-68
2022/04/20 11:29:30;;;;;;;21.90;5.25;;;19.30;95.50;;;;;;5038700;23;20383;-70
2022/04/20 11:32:04;;;;;;;11.55;5.85;;;19.70;95.10;;;;;;4997368;28;20068;-70
2022/04/20 11:34:34;;;;;;;10.95;4.95;;;19.80;93.30;;;;;;4997604;28;20088;-70
2022/04/20 11:37:02;;;;;;;12.38;5.57;;;19.80;93.90;;;;;;4997423;28;20035;-70
2022/04/20 11:39:29;;;;;;;13.98;5.50;;;20.20;96.80;;;;;;5013667;28;20022;-70
2022/04/20 11:42:00;;;;;;;12.27;4.72;;;20.40;91.20;;;;;;5017015;28;20485;-70
2022/04/20 11:44:26;;;;;;;11.88;5.55;;;19.90;92.40;;;;;;5016780;28;20033;-70
2022/04/20 11:46:54;;;;;;;7.97;4.65;;;19.80;91.50;;;;;;5016738;28;20026;-70
2022/04/20 11:49:20;;;;;;;7.32;5.05;;;19.60;94.70;;;;;;5016230;28;20037;-71
2022/04/20 11:51:54;;;;;;;13.45;5.22;;;20.20;94.10;;;;;;5016718;28;20482;-71
2022/04/20 11:54:20;;;;;;;;;;;21.00;92.40;;;;;;5016978;28;20112;-70
2022/04/20 11:56:46;;;;;;;11.38;4.88;;;21.90;91.10;;;;;;5016086;28;19909;-71
2022/04/20 11:59:11;;;;;;;13.10;4.50;;;22.60;89.10;;;;;;5016484;28;20033;-71
2022/04/20 12:01:38;;;;;;;14.38;4.13;;;22.90;78.10;;;;;;5016404;28;20033;-70
2022/04/20 12:04:19;;;;;;;8.43;4.45;;;23.40;84.60;;;;;;5015123;28;20026;-70
2022/04/20 12:06:45;;;;;;;10.25;4.20;;;23.00;78.80;;;;;;5016511;28;20021;-70
2022/04/20 12:09:12;;;;;;;11.25;5.65;;;22.90;80.40;;;;;;5016254;28;20022;-70
2022/04/20 12:11:39;;;;;;;7.35;4.53;;;22.60;78.10;;;;;;5015935;28;20097;-70
2022/04/20 12:14:04;;;;;;;10.02;5.05;;;23.00;79.20;;;;;;5016204;28;20113;-70
2022/04/20 12:16:34;;;;;;;13.80;4.95;;;23.30;71.60;;;;;;5016867;28;20113;-70
2022/04/20 12:18:59;;;;;;;7.25;3.95;;;23.80;75.00;;;;;;5015979;28;20109;-71
2022/04/20 12:21:40;;;;;;;5.80;4.10;;;23.10;74.10;;;;;;5014780;28;20086;-71
2022/04/20 12:24:08;;;;;;;10.32;4.78;;;22.70;71.90;;;;;;5016053;28;20021;-71
2022/04/20 12:26:33;;;;;;;8.05;2.75;;;22.90;76.20;;;;;;5016094;28;20030;-70
2022/04/20 12:29:01;;;;;;;6.90;3.13;;;23.40;79.20;;;;;;5015668;28;20048;-70
2022/04/20 12:31:26;;;;;;;8.13;3.28;;;23.80;77.10;;;;;;5015295;28;20097;-70
2022/04/20 12:34:03;;;;;;;8.18;4.43;;;24.10;73.70;;;;;;5016077;28;20509;-70
2022/04/20 12:36:31;;;;;;;9.38;3.85;;;23.70;74.40;;;;;;5016006;28;20054;-70
2022/04/20 12:38:58;;;;;;;7.20;3.97;;;23.50;75.80;;;;;;5014014;28;20026;-70
2022/04/20 12:41:42;;;;;;;13.57;4.05;;;23.10;71.80;;;;;;5015727;28;20076;-70
2022/04/20 12:44:34;;;;;;;9.27;5.32;;;23.10;72.10;;;;;;5015874;28;20029;-70
2022/04/20 12:47:01;;;;;;;8.52;4.57;;;23.40;66.80;;;;;;5015888;28;20030;-70
2022/04/20 12:49:27;;;;;;;15.60;3.75;;;23.60;65.20;;;;;;5014927;28;20033;-70
2022/04/20 12:51:53;;;;;;;6.68;3.53;;;23.80;69.60;;;;;;5015549;28;20026;-70
2022/04/20 12:54:25;;;;;;;6.35;3.25;;;24.90;73.10;;;;;;5015490;28;20030;-71
2022/04/20 13:02:19;;;;;;;8.18;3.63;;;26.30;66.30;;;;;;5015586;28;20036;-70
2022/04/20 13:04:49;;;;;;;9.93;3.28;;;26.80;65.30;;;;;;5015562;28;20018;-70
2022/04/20 13:07:15;;;;;;;7.32;2.60;;;25.50;63.80;;;;;;5015520;28;20033;-70
2022/04/20 13:09:41;;;;;;;4.60;3.13;;;24.90;61.50;;;;;;5016135;28;20026;-70
2022/04/20 13:12:07;;;;;;;9.35;3.20;;;24.50;63.00;;;;;;5030540;28;20113;-70
2022/04/20 13:14:32;;;;;;;5.72;3.42;;;24.30;66.90;;;;;;5015547;28;20057;-70
2022/04/20 13:16:58;;;;;;;9.98;3.40;;;24.00;62.10;;;;;;5015777;28;20143;-70
2022/04/20 13:19:23;;;;;;;8.30;3.17;;;23.90;68.00;;;;;;5015379;28;20076;-71
2022/04/20 13:21:49;;;;;;;4.97;3.10;;;24.30;67.00;;;;;;5014994;28;20113;-71
2022/04/20 13:27:54;;;;;;;8.13;3.08;;;24.90;61.70;;;;;;5015451;28;20470;-70
2022/04/20 13:30:07;;;;;;;7.07;3.40;;;26.20;59.80;;;;;;4955090;29;20046;-70